sensor_id;sensor_type;location;lat;lon;timestamp;P1;durP1;ratioP1;P2;durP2;ratioP2
7017;SDS011;3549;42.162;24.726;2024-01-10T00:01:08;38.60;;;14.90;;
7017;SDS011;3549;42.162;24.726;2024-01-10T00:03:34;54.13;;;21.30;;
7017;SDS011;3549;42.162;24.726;2024-01-10T00:05:59;54.27;;;18.70;;
7017;SDS011;3549;42.162;24.726;2024-01-10T00:08:24;53.80;;;20.93;;
7017;SDS011;3549;42.162;24.726;2024-01-10T00:10:51;49.97;;;20.40;;
7017;SDS011;3549;42.162;24.726;2024-01-10T00:13:17;48.88;;;19.95;;
7017;SDS011;3549;42.162;24.726;2024-01-10T00:15:42;42.00;;;15.80;;
7017;SDS011;3549;42.162;24.726;2024-01-10T00:18:08;45.03;;;17.70;;
7017;SDS011;3549;42.162;24.726;2024-01-10T00:20:33;36.93;;;15.10;;
7017;SDS011;3549;42.162;24.726;2024-01-10T00:22:58;35.70;;;13.73;;
7017;SDS011;3549;42.162;24.726;2024-01-10T00:25:24;32.67;;;12.37;;
7017;SDS011;3549;42.162;24.726;2024-01-10T00:27:49;29.27;;;12.37;;
7017;SDS011;3549;42.162;24.726;2024-01-10T00:30:15;46.33;;;15.07;;
7017;SDS011;3549;42.162;24.726;2024-01-10T00:32:40;42.77;;;16.63;;
7017;SDS011;3549;42.162;24.726;2024-01-10T00:35:05;40.30;;;16.40;;
7017;SDS011;3549;42.162;24.726;2024-01-10T00:37:31;47.03;;;18.13;;
7017;SDS011;3549;42.162;24.726;2024-01-10T00:39:56;48.57;;;18.07;;
7017;SDS011;3549;42.162;24.726;2024-01-10T00:42:22;52.07;;;21.80;;
7017;SDS011;3549;42.162;24.726;2024-01-10T00:44:47;33.27;;;12.93;;
7017;SDS011;3549;42.162;24.726;2024-01-10T00:47:13;51.13;;;19.63;;
7017;SDS011;3549;42.162;24.726;2024-01-10T00:49:38;49.27;;;19.53;;
7017;SDS011;3549;42.162;24.726;2024-01-10T00:52:04;41.23;;;14.83;;
7017;SDS011;3549;42.162;24.726;2024-01-10T00:54:29;46.83;;;19.63;;
7017;SDS011;3549;42.162;24.726;2024-01-10T00:56:54;47.77;;;18.87;;
7017;SDS011;3549;42.162;24.726;2024-01-10T00:59:20;48.00;;;19.67;;
7017;SDS011;3549;42.162;24.726;2024-01-10T01:01:45;40.20;;;15.33;;
7017;SDS011;3549;42.162;24.726;2024-01-10T01:04:11;48.37;;;19.03;;
7017;SDS011;3549;42.162;24.726;2024-01-10T01:06:36;49.73;;;20.87;;
7017;SDS011;3549;42.162;24.726;2024-01-10T01:09:01;40.83;;;16.73;;
7017;SDS011;3549;42.162;24.726;2024-01-10T01:11:27;48.73;;;16.97;;
7017;SDS011;3549;42.162;24.726;2024-01-10T01:13:52;47.60;;;18.70;;
7017;SDS011;3549;42.162;24.726;2024-01-10T01:16:18;52.17;;;22.50;;
7017;SDS011;3549;42.162;24.726;2024-01-10T01:18:43;52.23;;;21.23;;
7017;SDS011;3549;42.162;24.726;2024-01-10T01:21:10;59.33;;;24.95;;
7017;SDS011;3549;42.162;24.726;2024-01-10T01:23:36;51.97;;;21.65;;
7017;SDS011;3549;42.162;24.726;2024-01-10T01:26:01;54.63;;;23.10;;
7017;SDS011;3549;42.162;24.726;2024-01-10T01:28:28;54.30;;;21.60;;
7017;SDS011;3549;42.162;24.726;2024-01-10T01:30:54;60.53;;;21.40;;
7017;SDS011;3549;42.162;24.726;2024-01-10T01:33:20;59.50;;;24.00;;
7017;SDS011;3549;42.162;24.726;2024-01-10T01:35:45;66.30;;;25.20;;
7017;SDS011;3549;42.162;24.726;2024-01-10T01:38:10;47.47;;;19.77;;
7017;SDS011;3549;42.162;24.726;2024-01-10T01:40:36;56.13;;;22.57;;
7017;SDS011;3549;42.162;24.726;2024-01-10T01:43:01;55.37;;;22.37;;
7017;SDS011;3549;42.162;24.726;2024-01-10T01:45:40;51.47;;;21.55;;
7017;SDS011;3549;42.162;24.726;2024-01-10T01:48:06;52.27;;;21.87;;
7017;SDS011;3549;42.162;24.726;2024-01-10T01:50:31;58.70;;;24.83;;
7017;SDS011;3549;42.162;24.726;2024-01-10T01:52:57;57.60;;;22.97;;
7017;SDS011;3549;42.162;24.726;2024-01-10T01:55:22;52.33;;;21.80;;
7017;SDS011;3549;42.162;24.726;2024-01-10T01:57:49;55.80;;;23.33;;
7017;SDS011;3549;42.162;24.726;2024-01-10T02:00:14;44.07;;;17.30;;
7017;SDS011;3549;42.162;24.726;2024-01-10T02:02:40;60.33;;;25.13;;
7017;SDS011;3549;42.162;24.726;2024-01-10T02:05:08;41.13;;;18.10;;
7017;SDS011;3549;42.162;24.726;2024-01-10T02:07:34;55.80;;;23.80;;
7017;SDS011;3549;42.162;24.726;2024-01-10T02:10:00;57.97;;;24.13;;
7017;SDS011;3549;42.162;24.726;2024-01-10T02:12:25;51.50;;;20.53;;
7017;SDS011;3549;42.162;24.726;2024-01-10T02:14:51;52.20;;;23.50;;
7017;SDS011;3549;42.162;24.726;2024-01-10T02:17:17;56.20;;;25.65;;
7017;SDS011;3549;42.162;24.726;2024-01-10T02:19:42;56.43;;;23.80;;
7017;SDS011;3549;42.162;24.726;2024-01-10T02:22:08;52.37;;;23.30;;
7017;SDS011;3549;42.162;24.726;2024-01-10T02:24:33;57.90;;;25.63;;
7017;SDS011;3549;42.162;24.726;2024-01-10T02:26:59;59.10;;;25.63;;
7017;SDS011;3549;42.162;24.726;2024-01-10T02:29:24;56.40;;;23.50;;
7017;SDS011;3549;42.162;24.726;2024-01-10T02:31:50;43.07;;;17.13;;
7017;SDS011;3549;42.162;24.726;2024-01-10T02:34:15;47.17;;;19.70;;
7017;SDS011;3549;42.162;24.726;2024-01-10T02:36:41;42.53;;;16.97;;
7017;SDS011;3549;42.162;24.726;2024-01-10T02:39:06;44.73;;;18.17;;
7017;SDS011;3549;42.162;24.726;2024-01-10T02:41:31;44.47;;;17.93;;
7017;SDS011;3549;42.162;24.726;2024-01-10T02:43:57;43.90;;;17.97;;
7017;SDS011;3549;42.162;24.726;2024-01-10T02:46:24;40.75;;;17.50;;
7017;SDS011;3549;42.162;24.726;2024-01-10T02:48:52;46.50;;;19.40;;
7017;SDS011;3549;42.162;24.726;2024-01-10T02:51:19;45.10;;;19.17;;
7017;SDS011;3549;42.162;24.726;2024-01-10T02:53:44;44.77;;;19.23;;
7017;SDS011;3549;42.162;24.726;2024-01-10T02:56:09;48.57;;;20.07;;
7017;SDS011;3549;42.162;24.726;2024-01-10T02:58:35;45.37;;;19.73;;
7017;SDS011;3549;42.162;24.726;2024-01-10T03:01:00;49.03;;;20.83;;
7017;SDS011;3549;42.162;24.726;2024-01-10T03:03:26;46.27;;;18.47;;
7017;SDS011;3549;42.162;24.726;2024-01-10T03:05:52;45.17;;;19.70;;
7017;SDS011;3549;42.162;24.726;2024-01-10T03:08:17;45.33;;;19.23;;
7017;SDS011;3549;42.162;24.726;2024-01-10T03:10:42;43.97;;;17.63;;
7017;SDS011;3549;42.162;24.726;2024-01-10T03:13:08;38.67;;;17.03;;
7017;SDS011;3549;42.162;24.726;2024-01-10T03:15:33;41.13;;;17.60;;
7017;SDS011;3549;42.162;24.726;2024-01-10T03:17:58;40.47;;;17.70;;
7017;SDS011;3549;42.162;24.726;2024-01-10T03:20:25;47.80;;;19.33;;
7017;SDS011;3549;42.162;24.726;2024-01-10T03:22:50;46.20;;;20.00;;
7017;SDS011;3549;42.162;24.726;2024-01-10T03:25:16;41.77;;;16.73;;
7017;SDS011;3549;42.162;24.726;2024-01-10T03:27:41;41.07;;;17.53;;
7017;SDS011;3549;42.162;24.726;2024-01-10T03:30:06;44.47;;;16.67;;
7017;SDS011;3549;42.162;24.726;2024-01-10T03:32:32;38.80;;;15.70;;
7017;SDS011;3549;42.162;24.726;2024-01-10T03:34:58;38.33;;;15.17;;
7017;SDS011;3549;42.162;24.726;2024-01-10T03:37:23;41.23;;;17.30;;
7017;SDS011;3549;42.162;24.726;2024-01-10T03:39:48;46.73;;;17.80;;
7017;SDS011;3549;42.162;24.726;2024-01-10T03:42:14;40.53;;;17.43;;
7017;SDS011;3549;42.162;24.726;2024-01-10T03:44:40;45.67;;;17.73;;
7017;SDS011;3549;42.162;24.726;2024-01-10T03:47:06;41.93;;;16.90;;
7017;SDS011;3549;42.162;24.726;2024-01-10T03:49:32;99.03;;;39.70;;
7017;SDS011;3549;42.162;24.726;2024-01-10T03:51:57;72.60;;;28.70;;
7017;SDS011;3549;42.162;24.726;2024-01-10T03:54:22;43.90;;;17.23;;
7017;SDS011;3549;42.162;24.726;2024-01-10T03:56:48;45.30;;;18.80;;
7017;SDS011;3549;42.162;24.726;2024-01-10T03:59:13;57.33;;;25.37;;
7017;SDS011;3549;42.162;24.726;2024-01-10T04:01:39;46.27;;;19.23;;
7017;SDS011;3549;42.162;24.726;2024-01-10T04:04:04;49.03;;;20.90;;
7017;SDS011;3549;42.162;24.726;2024-01-10T04:06:30;48.67;;;20.97;;
7017;SDS011;3549;42.162;24.726;2024-01-10T04:08:55;49.20;;;21.87;;
7017;SDS011;3549;42.162;24.726;2024-01-10T04:11:21;57.37;;;23.57;;
7017;SDS011;3549;42.162;24.726;2024-01-10T04:13:46;53.57;;;23.97;;
7017;SDS011;3549;42.162;24.726;2024-01-10T04:16:11;58.43;;;23.23;;
7017;SDS011;3549;42.162;24.726;2024-01-10T04:18:38;60.73;;;26.00;;
7017;SDS011;3549;42.162;24.726;2024-01-10T04:21:03;66.33;;;27.03;;
7017;SDS011;3549;42.162;24.726;2024-01-10T04:23:29;68.30;;;26.67;;
7017;SDS011;3549;42.162;24.726;2024-01-10T04:25:56;70.60;;;26.53;;
7017;SDS011;3549;42.162;24.726;2024-01-10T04:28:21;63.53;;;24.87;;
7017;SDS011;3549;42.162;24.726;2024-01-10T04:30:47;64.57;;;23.60;;
7017;SDS011;3549;42.162;24.726;2024-01-10T04:33:12;62.10;;;24.63;;
7017;SDS011;3549;42.162;24.726;2024-01-10T04:35:37;73.73;;;30.93;;
7017;SDS011;3549;42.162;24.726;2024-01-10T04:38:03;63.87;;;27.47;;
7017;SDS011;3549;42.162;24.726;2024-01-10T04:40:28;55.20;;;25.70;;
7017;SDS011;3549;42.162;24.726;2024-01-10T04:42:54;50.47;;;21.43;;
7017;SDS011;3549;42.162;24.726;2024-01-10T04:45:19;45.53;;;20.43;;
7017;SDS011;3549;42.162;24.726;2024-01-10T04:47:45;55.27;;;24.13;;
7017;SDS011;3549;42.162;24.726;2024-01-10T04:50:11;59.83;;;23.77;;
7017;SDS011;3549;42.162;24.726;2024-01-10T04:52:36;58.47;;;24.17;;
7017;SDS011;3549;42.162;24.726;2024-01-10T04:55:02;60.37;;;24.73;;
7017;SDS011;3549;42.162;24.726;2024-01-10T04:57:28;68.83;;;28.27;;
7017;SDS011;3549;42.162;24.726;2024-01-10T04:59:53;92.93;;;36.97;;
7017;SDS011;3549;42.162;24.726;2024-01-10T05:02:19;110.80;;;44.03;;
7017;SDS011;3549;42.162;24.726;2024-01-10T05:04:44;149.90;;;55.53;;
7017;SDS011;3549;42.162;24.726;2024-01-10T05:07:10;82.93;;;33.80;;
7017;SDS011;3549;42.162;24.726;2024-01-10T05:09:36;58.53;;;26.13;;
7017;SDS011;3549;42.162;24.726;2024-01-10T05:12:01;63.00;;;24.83;;
7017;SDS011;3549;42.162;24.726;2024-01-10T05:14:27;49.23;;;21.23;;
7017;SDS011;3549;42.162;24.726;2024-01-10T05:16:53;51.93;;;22.07;;
7017;SDS011;3549;42.162;24.726;2024-01-10T05:19:18;59.90;;;24.10;;
7017;SDS011;3549;42.162;24.726;2024-01-10T05:21:44;65.40;;;27.33;;
7017;SDS011;3549;42.162;24.726;2024-01-10T05:24:09;63.83;;;26.10;;
7017;SDS011;3549;42.162;24.726;2024-01-10T05:26:35;58.47;;;25.53;;
7017;SDS011;3549;42.162;24.726;2024-01-10T05:29:00;58.57;;;25.80;;
7017;SDS011;3549;42.162;24.726;2024-01-10T05:31:26;57.03;;;26.30;;
7017;SDS011;3549;42.162;24.726;2024-01-10T05:33:52;59.47;;;24.70;;
7017;SDS011;3549;42.162;24.726;2024-01-10T05:36:20;68.70;;;26.93;;
7017;SDS011;3549;42.162;24.726;2024-01-10T05:38:47;70.97;;;29.83;;
7017;SDS011;3549;42.162;24.726;2024-01-10T05:41:13;85.90;;;35.20;;
7017;SDS011;3549;42.162;24.726;2024-01-10T05:43:39;112.50;;;44.40;;
7017;SDS011;3549;42.162;24.726;2024-01-10T05:46:05;130.27;;;46.47;;
7017;SDS011;3549;42.162;24.726;2024-01-10T05:48:30;121.97;;;47.03;;
7017;SDS011;3549;42.162;24.726;2024-01-10T05:50:55;170.23;;;60.57;;
7017;SDS011;3549;42.162;24.726;2024-01-10T05:53:22;150.43;;;57.03;;
7017;SDS011;3549;42.162;24.726;2024-01-10T05:55:48;146.18;;;55.72;;
7017;SDS011;3549;42.162;24.726;2024-01-10T05:58:14;187.37;;;65.40;;
7017;SDS011;3549;42.162;24.726;2024-01-10T06:00:39;136.70;;;49.70;;
7017;SDS011;3549;42.162;24.726;2024-01-10T06:03:05;114.40;;;42.73;;
7017;SDS011;3549;42.162;24.726;2024-01-10T06:05:30;95.57;;;38.20;;
7017;SDS011;3549;42.162;24.726;2024-01-10T06:07:58;91.00;;;37.03;;
7017;SDS011;3549;42.162;24.726;2024-01-10T06:10:24;75.10;;;29.27;;
7017;SDS011;3549;42.162;24.726;2024-01-10T06:12:49;70.03;;;26.73;;
7017;SDS011;3549;42.162;24.726;2024-01-10T06:15:15;63.40;;;25.03;;
7017;SDS011;3549;42.162;24.726;2024-01-10T06:17:41;60.23;;;24.07;;
7017;SDS011;3549;42.162;24.726;2024-01-10T06:20:06;56.17;;;23.33;;
7017;SDS011;3549;42.162;24.726;2024-01-10T06:22:32;60.17;;;23.05;;
7017;SDS011;3549;42.162;24.726;2024-01-10T06:24:58;64.15;;;24.17;;
7017;SDS011;3549;42.162;24.726;2024-01-10T06:27:23;58.53;;;23.63;;
7017;SDS011;3549;42.162;24.726;2024-01-10T06:29:49;67.23;;;28.83;;
7017;SDS011;3549;42.162;24.726;2024-01-10T06:32:14;76.13;;;32.40;;
7017;SDS011;3549;42.162;24.726;2024-01-10T06:34:40;79.57;;;33.00;;
7017;SDS011;3549;42.162;24.726;2024-01-10T06:37:06;77.30;;;33.90;;
7017;SDS011;3549;42.162;24.726;2024-01-10T06:39:32;85.80;;;35.70;;
7017;SDS011;3549;42.162;24.726;2024-01-10T06:41:58;91.28;;;38.85;;
7017;SDS011;3549;42.162;24.726;2024-01-10T06:44:24;92.97;;;38.27;;
7017;SDS011;3549;42.162;24.726;2024-01-10T06:46:49;116.60;;;47.20;;
7017;SDS011;3549;42.162;24.726;2024-01-10T06:49:14;148.20;;;60.53;;
7017;SDS011;3549;42.162;24.726;2024-01-10T06:51:40;185.10;;;72.17;;
7017;SDS011;3549;42.162;24.726;2024-01-10T06:54:05;212.80;;;85.47;;
7017;SDS011;3549;42.162;24.726;2024-01-10T06:56:31;250.03;;;108.90;;
7017;SDS011;3549;42.162;24.726;2024-01-10T06:58:58;237.70;;;92.15;;
7017;SDS011;3549;42.162;24.726;2024-01-10T07:01:24;390.42;;;151.43;;
7017;SDS011;3549;42.162;24.726;2024-01-10T07:03:51;429.70;;;195.73;;
7017;SDS011;3549;42.162;24.726;2024-01-10T07:06:21;434.27;;;205.43;;
7017;SDS011;3549;42.162;24.726;2024-01-10T07:08:50;448.45;;;221.45;;
7017;SDS011;3549;42.162;24.726;2024-01-10T07:11:18;193.53;;;75.30;;
7017;SDS011;3549;42.162;24.726;2024-01-10T07:13:56;298.00;;;113.95;;
7017;SDS011;3549;42.162;24.726;2024-01-10T07:16:22;449.58;;;217.90;;
7017;SDS011;3549;42.162;24.726;2024-01-10T07:18:50;391.27;;;171.83;;
7017;SDS011;3549;42.162;24.726;2024-01-10T07:21:16;436.27;;;182.93;;
7017;SDS011;3549;42.162;24.726;2024-01-10T07:23:42;410.93;;;154.40;;
7017;SDS011;3549;42.162;24.726;2024-01-10T07:26:08;280.90;;;116.90;;
7017;SDS011;3549;42.162;24.726;2024-01-10T07:28:34;262.50;;;105.57;;
7017;SDS011;3549;42.162;24.726;2024-01-10T07:30:59;203.80;;;83.47;;
7017;SDS011;3549;42.162;24.726;2024-01-10T07:33:27;194.40;;;78.83;;
7017;SDS011;3549;42.162;24.726;2024-01-10T07:35:55;264.30;;;110.90;;
7017;SDS011;3549;42.162;24.726;2024-01-10T07:38:22;358.77;;;125.17;;
7017;SDS011;3549;42.162;24.726;2024-01-10T07:40:47;274.67;;;84.43;;
7017;SDS011;3549;42.162;24.726;2024-01-10T07:43:13;92.97;;;36.17;;
7017;SDS011;3549;42.162;24.726;2024-01-10T07:45:38;205.17;;;73.27;;
7017;SDS011;3549;42.162;24.726;2024-01-10T07:48:04;283.77;;;111.07;;
7017;SDS011;3549;42.162;24.726;2024-01-10T07:50:30;327.93;;;113.13;;
7017;SDS011;3549;42.162;24.726;2024-01-10T07:52:55;384.73;;;115.83;;
7017;SDS011;3549;42.162;24.726;2024-01-10T07:55:21;144.97;;;56.93;;
7017;SDS011;3549;42.162;24.726;2024-01-10T07:57:46;98.33;;;38.90;;
7017;SDS011;3549;42.162;24.726;2024-01-10T08:00:12;87.60;;;36.53;;
7017;SDS011;3549;42.162;24.726;2024-01-10T08:02:38;128.23;;;54.33;;
7017;SDS011;3549;42.162;24.726;2024-01-10T08:05:08;66.83;;;27.90;;
7017;SDS011;3549;42.162;24.726;2024-01-10T08:07:36;79.40;;;34.00;;
7017;SDS011;3549;42.162;24.726;2024-01-10T08:10:06;50.03;;;22.17;;
7017;SDS011;3549;42.162;24.726;2024-01-10T08:12:33;53.63;;;24.57;;
7017;SDS011;3549;42.162;24.726;2024-01-10T08:14:58;37.87;;;16.17;;
7017;SDS011;3549;42.162;24.726;2024-01-10T08:17:24;43.40;;;19.77;;
7017;SDS011;3549;42.162;24.726;2024-01-10T08:19:49;40.53;;;16.43;;
7017;SDS011;3549;42.162;24.726;2024-01-10T08:22:15;39.47;;;16.67;;
7017;SDS011;3549;42.162;24.726;2024-01-10T08:24:40;32.10;;;14.73;;
7017;SDS011;3549;42.162;24.726;2024-01-10T08:27:06;35.47;;;15.77;;
7017;SDS011;3549;42.162;24.726;2024-01-10T08:29:31;32.60;;;14.10;;
7017;SDS011;3549;42.162;24.726;2024-01-10T08:31:57;40.37;;;18.57;;
7017;SDS011;3549;42.162;24.726;2024-01-10T08:34:23;30.50;;;13.53;;
7017;SDS011;3549;42.162;24.726;2024-01-10T08:36:49;28.63;;;12.40;;
7017;SDS011;3549;42.162;24.726;2024-01-10T08:39:18;80.43;;;34.70;;
7017;SDS011;3549;42.162;24.726;2024-01-10T08:41:44;58.37;;;26.87;;
7017;SDS011;3549;42.162;24.726;2024-01-10T08:44:11;30.77;;;12.40;;
7017;SDS011;3549;42.162;24.726;2024-01-10T08:46:37;30.33;;;13.13;;
7017;SDS011;3549;42.162;24.726;2024-01-10T08:49:02;27.87;;;12.33;;
7017;SDS011;3549;42.162;24.726;2024-01-10T08:51:28;33.57;;;14.43;;
7017;SDS011;3549;42.162;24.726;2024-01-10T08:53:53;32.23;;;14.27;;
7017;SDS011;3549;42.162;24.726;2024-01-10T08:56:19;31.07;;;14.27;;
7017;SDS011;3549;42.162;24.726;2024-01-10T08:58:45;27.60;;;13.57;;
7017;SDS011;3549;42.162;24.726;2024-01-10T09:01:11;31.80;;;13.13;;
7017;SDS011;3549;42.162;24.726;2024-01-10T09:03:36;52.37;;;22.03;;
7017;SDS011;3549;42.162;24.726;2024-01-10T09:06:03;49.77;;;21.50;;
7017;SDS011;3549;42.162;24.726;2024-01-10T09:08:29;56.37;;;24.07;;
7017;SDS011;3549;42.162;24.726;2024-01-10T09:10:55;53.23;;;23.77;;
7017;SDS011;3549;42.162;24.726;2024-01-10T09:13:20;47.03;;;19.17;;
7017;SDS011;3549;42.162;24.726;2024-01-10T09:15:45;54.43;;;23.70;;
7017;SDS011;3549;42.162;24.726;2024-01-10T09:18:11;45.07;;;20.03;;
7017;SDS011;3549;42.162;24.726;2024-01-10T09:20:36;37.33;;;18.50;;
7017;SDS011;3549;42.162;24.726;2024-01-10T09:23:02;51.53;;;23.60;;
7017;SDS011;3549;42.162;24.726;2024-01-10T09:25:28;46.90;;;23.20;;
7017;SDS011;3549;42.162;24.726;2024-01-10T09:27:54;59.67;;;26.50;;
7017;SDS011;3549;42.162;24.726;2024-01-10T09:30:20;212.87;;;78.53;;
7017;SDS011;3549;42.162;24.726;2024-01-10T09:32:52;58.90;;;23.27;;
7017;SDS011;3549;42.162;24.726;2024-01-10T09:35:17;44.57;;;20.60;;
7017;SDS011;3549;42.162;24.726;2024-01-10T09:37:43;58.53;;;23.70;;
7017;SDS011;3549;42.162;24.726;2024-01-10T09:40:10;38.97;;;18.10;;
7017;SDS011;3549;42.162;24.726;2024-01-10T09:42:39;29.43;;;13.43;;
7017;SDS011;3549;42.162;24.726;2024-01-10T09:45:05;41.40;;;19.50;;
7017;SDS011;3549;42.162;24.726;2024-01-10T09:47:33;55.87;;;25.17;;
7017;SDS011;3549;42.162;24.726;2024-01-10T09:50:01;41.43;;;17.80;;
7017;SDS011;3549;42.162;24.726;2024-01-10T09:52:28;52.37;;;23.07;;
7017;SDS011;3549;42.162;24.726;2024-01-10T09:55:02;39.13;;;17.73;;
7017;SDS011;3549;42.162;24.726;2024-01-10T09:57:29;49.43;;;22.40;;
7017;SDS011;3549;42.162;24.726;2024-01-10T09:59:55;43.70;;;22.00;;
7017;SDS011;3549;42.162;24.726;2024-01-10T10:02:21;39.60;;;18.97;;
7017;SDS011;3549;42.162;24.726;2024-01-10T10:04:57;48.97;;;24.40;;
7017;SDS011;3549;42.162;24.726;2024-01-10T10:07:29;98.10;;;39.13;;
7017;SDS011;3549;42.162;24.726;2024-01-10T10:09:58;92.27;;;37.43;;
7017;SDS011;3549;42.162;24.726;2024-01-10T10:12:41;30.37;;;15.17;;
7017;SDS011;3549;42.162;24.726;2024-01-10T10:15:13;52.27;;;24.97;;
7017;SDS011;3549;42.162;24.726;2024-01-10T10:17:40;75.90;;;36.80;;
7017;SDS011;3549;42.162;24.726;2024-01-10T10:20:13;36.47;;;18.17;;
7017;SDS011;3549;42.162;24.726;2024-01-10T10:23:06;45.10;;;21.47;;
7017;SDS011;3549;42.162;24.726;2024-01-10T10:25:45;43.83;;;20.93;;
7017;SDS011;3549;42.162;24.726;2024-01-10T10:28:12;78.30;;;27.47;;
7017;SDS011;3549;42.162;24.726;2024-01-10T10:30:37;65.67;;;29.07;;
7017;SDS011;3549;42.162;24.726;2024-01-10T10:33:03;99.13;;;43.37;;
7017;SDS011;3549;42.162;24.726;2024-01-10T10:35:29;54.50;;;26.43;;
7017;SDS011;3549;42.162;24.726;2024-01-10T10:37:58;37.67;;;18.30;;
7017;SDS011;3549;42.162;24.726;2024-01-10T10:40:24;35.37;;;17.60;;
7017;SDS011;3549;42.162;24.726;2024-01-10T10:42:56;36.20;;;17.47;;
7017;SDS011;3549;42.162;24.726;2024-01-10T10:45:21;33.60;;;13.70;;
7017;SDS011;3549;42.162;24.726;2024-01-10T10:47:58;37.57;;;16.67;;
7017;SDS011;3549;42.162;24.726;2024-01-10T10:50:33;53.53;;;22.73;;
7017;SDS011;3549;42.162;24.726;2024-01-10T10:53:02;47.27;;;24.73;;
7017;SDS011;3549;42.162;24.726;2024-01-10T10:55:28;61.73;;;28.97;;
7017;SDS011;3549;42.162;24.726;2024-01-10T10:57:54;35.20;;;18.70;;
7017;SDS011;3549;42.162;24.726;2024-01-10T11:00:21;21.17;;;8.53;;
7017;SDS011;3549;42.162;24.726;2024-01-10T11:02:52;19.63;;;8.30;;
7017;SDS011;3549;42.162;24.726;2024-01-10T11:05:18;24.53;;;10.80;;
7017;SDS011;3549;42.162;24.726;2024-01-10T11:07:45;24.80;;;12.60;;
7017;SDS011;3549;42.162;24.726;2024-01-10T11:10:32;46.77;;;23.37;;
7017;SDS011;3549;42.162;24.726;2024-01-10T11:13:03;19.20;;;9.07;;
7017;SDS011;3549;42.162;24.726;2024-01-10T11:15:47;28.07;;;14.97;;
7017;SDS011;3549;42.162;24.726;2024-01-10T11:21:29;21.80;;;11.20;;
7017;SDS011;3549;42.162;24.726;2024-01-10T11:24:14;24.10;;;12.30;;
7017;SDS011;3549;42.162;24.726;2024-01-10T11:26:40;44.33;;;19.10;;
7017;SDS011;3549;42.162;24.726;2024-01-10T11:29:09;24.37;;;12.40;;
7017;SDS011;3549;42.162;24.726;2024-01-10T11:31:35;88.70;;;32.73;;
7017;SDS011;3549;42.162;24.726;2024-01-10T11:34:00;36.40;;;17.40;;
7017;SDS011;3549;42.162;24.726;2024-01-10T11:36:27;24.83;;;12.93;;
7017;SDS011;3549;42.162;24.726;2024-01-10T11:38:56;25.27;;;12.10;;
7017;SDS011;3549;42.162;24.726;2024-01-10T11:41:25;46.73;;;22.67;;
7017;SDS011;3549;42.162;24.726;2024-01-10T11:46:55;32.00;;;15.37;;
7017;SDS011;3549;42.162;24.726;2024-01-10T11:49:20;29.27;;;15.13;;
7017;SDS011;3549;42.162;24.726;2024-01-10T11:51:52;30.57;;;16.70;;
7017;SDS011;3549;42.162;24.726;2024-01-10T11:57:10;27.33;;;13.90;;
7017;SDS011;3549;42.162;24.726;2024-01-10T11:59:38;26.13;;;13.97;;
7017;SDS011;3549;42.162;24.726;2024-01-10T12:02:06;27.10;;;15.00;;
7017;SDS011;3549;42.162;24.726;2024-01-10T12:04:32;28.37;;;13.63;;
7017;SDS011;3549;42.162;24.726;2024-01-10T12:06:57;41.20;;;19.93;;
7017;SDS011;3549;42.162;24.726;2024-01-10T12:09:23;31.77;;;15.60;;
7017;SDS011;3549;42.162;24.726;2024-01-10T12:11:49;32.20;;;16.93;;
7017;SDS011;3549;42.162;24.726;2024-01-10T12:14:15;26.27;;;12.90;;
7017;SDS011;3549;42.162;24.726;2024-01-10T12:16:42;25.13;;;12.40;;
7017;SDS011;3549;42.162;24.726;2024-01-10T12:19:07;25.70;;;13.47;;
7017;SDS011;3549;42.162;24.726;2024-01-10T12:21:33;38.20;;;20.53;;
7017;SDS011;3549;42.162;24.726;2024-01-10T12:23:59;28.27;;;14.83;;
7017;SDS011;3549;42.162;24.726;2024-01-10T12:26:24;24.03;;;13.20;;
7017;SDS011;3549;42.162;24.726;2024-01-10T12:28:56;30.13;;;15.03;;
7017;SDS011;3549;42.162;24.726;2024-01-10T12:31:24;22.87;;;12.17;;
7017;SDS011;3549;42.162;24.726;2024-01-10T12:33:52;21.93;;;11.83;;
7017;SDS011;3549;42.162;24.726;2024-01-10T12:36:20;20.33;;;11.20;;
7017;SDS011;3549;42.162;24.726;2024-01-10T12:38:45;22.33;;;11.70;;
7017;SDS011;3549;42.162;24.726;2024-01-10T12:41:11;22.10;;;11.10;;
7017;SDS011;3549;42.162;24.726;2024-01-10T12:43:36;26.53;;;14.03;;
7017;SDS011;3549;42.162;24.726;2024-01-10T12:46:12;25.07;;;12.40;;
7017;SDS011;3549;42.162;24.726;2024-01-10T12:48:41;23.03;;;13.20;;
7017;SDS011;3549;42.162;24.726;2024-01-10T12:51:10;20.57;;;12.80;;
7017;SDS011;3549;42.162;24.726;2024-01-10T12:53:41;23.20;;;13.57;;
7017;SDS011;3549;42.162;24.726;2024-01-10T12:56:08;19.87;;;11.90;;
7017;SDS011;3549;42.162;24.726;2024-01-10T12:58:39;19.27;;;11.47;;
7017;SDS011;3549;42.162;24.726;2024-01-10T13:01:08;23.57;;;11.87;;
7017;SDS011;3549;42.162;24.726;2024-01-10T13:03:34;18.97;;;11.33;;
7017;SDS011;3549;42.162;24.726;2024-01-10T13:05:59;22.47;;;12.80;;
7017;SDS011;3549;42.162;24.726;2024-01-10T13:08:25;67.50;;;32.40;;
7017;SDS011;3549;42.162;24.726;2024-01-10T13:10:51;36.83;;;18.60;;
7017;SDS011;3549;42.162;24.726;2024-01-10T13:13:16;34.00;;;17.13;;
7017;SDS011;3549;42.162;24.726;2024-01-10T13:15:47;30.27;;;16.10;;
7017;SDS011;3549;42.162;24.726;2024-01-10T13:18:13;21.23;;;11.90;;
7017;SDS011;3549;42.162;24.726;2024-01-10T13:20:40;27.27;;;15.60;;
7017;SDS011;3549;42.162;24.726;2024-01-10T13:23:06;25.83;;;12.70;;
7017;SDS011;3549;42.162;24.726;2024-01-10T13:25:32;23.47;;;13.47;;
7017;SDS011;3549;42.162;24.726;2024-01-10T13:27:59;28.03;;;15.87;;
7017;SDS011;3549;42.162;24.726;2024-01-10T13:30:26;22.43;;;12.30;;
7017;SDS011;3549;42.162;24.726;2024-01-10T13:32:51;24.63;;;12.43;;
7017;SDS011;3549;42.162;24.726;2024-01-10T13:35:17;29.77;;;14.23;;
7017;SDS011;3549;42.162;24.726;2024-01-10T13:37:42;21.27;;;11.83;;
7017;SDS011;3549;42.162;24.726;2024-01-10T13:40:08;27.97;;;16.43;;
7017;SDS011;3549;42.162;24.726;2024-01-10T13:42:39;31.07;;;17.30;;
7017;SDS011;3549;42.162;24.726;2024-01-10T13:45:08;49.07;;;24.63;;
7017;SDS011;3549;42.162;24.726;2024-01-10T13:47:37;134.00;;;51.77;;
7017;SDS011;3549;42.162;24.726;2024-01-10T13:50:03;35.03;;;19.57;;
7017;SDS011;3549;42.162;24.726;2024-01-10T13:52:31;33.67;;;16.67;;
7017;SDS011;3549;42.162;24.726;2024-01-10T13:54:56;37.03;;;18.53;;
7017;SDS011;3549;42.162;24.726;2024-01-10T13:57:22;39.20;;;18.83;;
7017;SDS011;3549;42.162;24.726;2024-01-10T13:59:47;39.97;;;19.03;;
7017;SDS011;3549;42.162;24.726;2024-01-10T14:02:13;40.47;;;19.90;;
7017;SDS011;3549;42.162;24.726;2024-01-10T14:04:39;39.73;;;20.47;;
7017;SDS011;3549;42.162;24.726;2024-01-10T14:07:04;46.70;;;23.03;;
7017;SDS011;3549;42.162;24.726;2024-01-10T14:09:30;66.13;;;29.80;;
7017;SDS011;3549;42.162;24.726;2024-01-10T14:11:56;46.73;;;23.33;;
7017;SDS011;3549;42.162;24.726;2024-01-10T14:14:22;54.60;;;23.40;;
7017;SDS011;3549;42.162;24.726;2024-01-10T14:16:47;51.83;;;22.83;;
7017;SDS011;3549;42.162;24.726;2024-01-10T14:19:12;45.60;;;22.07;;
7017;SDS011;3549;42.162;24.726;2024-01-10T14:21:38;49.30;;;22.47;;
7017;SDS011;3549;42.162;24.726;2024-01-10T14:24:04;45.33;;;22.80;;
7017;SDS011;3549;42.162;24.726;2024-01-10T14:26:30;47.10;;;23.20;;
7017;SDS011;3549;42.162;24.726;2024-01-10T14:28:55;46.03;;;22.50;;
7017;SDS011;3549;42.162;24.726;2024-01-10T14:31:22;48.10;;;23.23;;
7017;SDS011;3549;42.162;24.726;2024-01-10T14:33:48;53.30;;;24.07;;
7017;SDS011;3549;42.162;24.726;2024-01-10T14:36:13;49.33;;;23.33;;
7017;SDS011;3549;42.162;24.726;2024-01-10T14:38:39;48.00;;;22.30;;